Elgin, IL (60120)

6:56 PM CDT en Agosto 21, 2014 (GMT -0500)
Trout Park | Change Station
CLOSE
Current Station
Estación meteorológica personal
Location: Elgin, IL
Altura: 817 ft
Estaciones meteorológicas cercanas

Alt 817 ft 42.06 °N, 88.27 °W | Updated 2 seconds ago

Clear
Despejado
75.6 ° F
Sensación térmica 75 ° F
N
0.0
Viento Variable Viento desde Sur
Gusts 0.0 mph

Hoy
Alta -- | Baja -- ° F
--% Posibilidad de precipitaciones
Ayer
Alta -- | Baja -- ° F
Precip. -- pul
6:07 AM 7:44 PM
Creciente menguante, 11% visible
Presión 29.89 pul
Visibilidad 7.0 Millas
Nubes Despejado
Índice de calor 75 ° F
Punto de rocío 72 ° F
Humedad 90%
Precipitaciones 0.50 pul
Espesor de la nieve No disponible.
UV 0 de una escala de 12
Polen 5.80 de una escala de 12
Ozono Buena
PM2.5 Moderada
Flu Activity No disponible.
METAR KDPA 212352Z AUTO 17005KT 7SM CLR 25/23 A2990 RMK AO2 SLP121 60017 T02500233 10272 20239 55023

More Conditions Fewer Conditions

Presión 29.89 pul
Visibilidad 7.0 Millas
Nubes Despejado
Índice de calor 75 ° F
Punto de rocío 72 ° F
Humedad 90%
Precipitaciones 0.50 pul
Espesor de la nieve No disponible.
UV 0 de una escala de 12
Polen 5.80 de una escala de 12
Ozono Buena
PM2.5 Moderada
Flu Activity No disponible.
METAR KDPA 212352Z AUTO 17005KT 7SM CLR 25/23 A2990 RMK AO2 SLP121 60017 T02500233 10272 20239 55023

More Conditions Fewer Conditions

10-Day Weather Forecast

Almanac

Astronomía

Aug. 21, 2014 Salida Puesta
Hora real 6:07 AM CDT 7:44 PM CDT
Crepúsculo civil 5:37 AM CDT 8:13 PM CDT
Crepúsculo náutico 5:01 AM CDT 8:49 PM CDT
Crepúsculo astronómico 4:23 AM CDT 9:27 PM CDT
Luna 2:35 AM CDT 5:14 PM CDT
Horas de luz 14h 36m
Horas de luz
13h 37m
Tomorrow will be 2m 36s shorter.
Creciente menguante, 11% of the Moon is Illuminated
Hoy
Creciente menguante
Ago 25
Nueva
Sep 2
Cuarto creciente
Sep 8
Luna llena
Sep 15
Cuarto menguante

Extremos de hoy

Máximos del estado Bajos del estado

Community

WunderPhotos

Upload Photos

1,746,055 ¡fotos cargadas!

Nearby

Calidad del aire

  Calidad del aire Índice AQ Contaminante
Ayer Moderada
PM2.5
Ayer Buena
OZONE
Real Moderada
PM2.5
Real Buena
OZONE
Jueves Moderada
PM2.5
Viernes Moderada
OZONE
Viernes Moderada
PM2.5
Sábado Moderada
OZONE
Sábado Moderada
PM2.5
Domingo Moderada
OZONE
Domingo Moderada
PM2.5

Grosos de nieve

Estación Profundido Altura
No tenemos constancia de nieve nueva.

Actividad de terremotos

Ciudad Distance Mag. Tiempo y dato
No hay informes recientes de la actividad sísmica.
Magnitud mínima muestra es 2,5.

Temperaturas de aguas costeras

Lugar Temperatura
Sin partes meteorológicos de las estaciones

Estaciones meteorológicas cercanas